Time;durP1;ratioP1;P1;durP2;ratioP2;P2;SDS_P1;SDS_P2;PMS_P1;PMS_P2;Temp;Humidity;BMP_temperature;BMP_pressure;BME280_temperature;BME280_humidity;BME280_pressure;Samples;Min_cycle;Max_cycle;Signal;HPM_P1;HPM_P2
2023/09/26 00:00:10;;;;;;;5.13;3.33;;;;;;;15.21;74.02;100574.34;6182224;23;20021;-86
2023/09/26 00:02:37;;;;;;;7.72;4.35;;;;;;;15.17;74.28;100575.66;6208948;23;20107;-86
2023/09/26 00:05:05;;;;;;;7.38;3.55;;;;;;;15.20;73.73;100572.69;6182387;23;20019;-86
2023/09/26 00:07:32;;;;;;;5.82;3.13;;;;;;;15.16;73.98;100571.28;6130181;23;20099;-85
2023/09/26 00:10:00;;;;;;;11.38;3.45;;;;;;;15.12;74.05;100570.75;6155842;23;20721;-85
2023/09/26 00:12:28;;;;;;;5.40;3.63;;;;;;;15.10;73.79;100574.56;6132411;23;20024;-86
2023/09/26 00:14:55;;;;;;;4.82;2.92;;;;;;;15.12;73.51;100575.25;6205021;23;20028;-85
2023/09/26 00:17:22;;;;;;;5.13;3.30;;;;;;;15.10;73.57;100570.03;6155310;23;20440;-85
2023/09/26 00:19:49;;;;;;;4.10;2.90;;;;;;;15.07;73.56;100574.84;6155372;23;20022;-85
2023/09/26 00:22:16;;;;;;;5.35;3.15;;;;;;;15.03;73.45;100570.78;6154483;23;20047;-85
2023/09/26 00:24:43;;;;;;;9.20;3.75;;;;;;;15.03;73.27;100568.09;6179198;23;20600;-85
2023/09/26 00:27:10;;;;;;;6.13;3.10;;;;;;;15.04;73.28;100567.13;6205001;23;20345;-86
2023/09/26 00:29:37;;;;;;;5.57;3.50;;;;;;;15.03;73.30;100566.25;6178802;23;20031;-85
2023/09/26 00:32:04;;;;;;;10.73;3.72;;;;;;;14.98;73.44;100558.69;6155010;23;20035;-86
2023/09/26 00:34:31;;;;;;;5.30;3.15;;;;;;;15.00;73.38;100563.88;6206405;23;20328;-85
2023/09/26 00:36:58;;;;;;;7.10;3.30;;;;;;;15.00;73.28;100566.56;6156189;23;20028;-85
2023/09/26 00:39:25;;;;;;;6.35;3.20;;;;;;;15.01;73.17;100565.59;6156792;23;20031;-85
2023/09/26 00:41:52;;;;;;;5.03;2.95;;;;;;;14.97;73.35;100566.84;6157875;23;20405;-86
2023/09/26 00:44:19;;;;;;;8.15;3.33;;;;;;;14.97;73.25;100564.19;6157040;23;20020;-86
2023/09/26 00:46:47;;;;;;;6.35;3.05;;;;;;;14.98;73.16;100576.56;6133034;23;20028;-85
2023/09/26 00:49:14;;;;;;;6.05;2.83;;;;;;;14.94;73.06;100562.66;6155561;23;20029;-85
2023/09/26 00:51:41;;;;;;;4.68;3.40;;;;;;;14.94;73.15;100568.00;6156392;23;20021;-86
2023/09/26 00:54:09;;;;;;;5.53;3.20;;;;;;;14.89;73.24;100569.44;6180129;23;20079;-85
2023/09/26 00:56:38;;;;;;;5.97;3.25;;;;;;;14.90;73.14;100563.91;6156846;23;20017;-85
2023/09/26 00:59:06;;;;;;;11.05;3.20;;;;;;;14.90;73.66;100563.91;6204557;23;20020;-86
2023/09/26 01:01:34;;;;;;;6.88;4.22;;;;;;;14.90;73.35;100561.25;6154802;23;20021;-86
2023/09/26 01:04:02;;;;;;;5.90;3.40;;;;;;;14.88;73.38;100559.69;6130041;23;20040;-86
2023/09/26 01:06:30;;;;;;;5.05;3.20;;;;;;;14.84;73.18;100567.19;6180360;23;20030;-85
2023/09/26 01:08:57;;;;;;;3.55;3.05;;;;;;;14.82;72.76;100558.47;6179980;23;20349;-85
2023/09/26 01:11:24;;;;;;;4.15;2.90;;;;;;;14.83;72.92;100553.94;6154718;23;20032;-85
2023/09/26 01:13:50;;;;;;;5.28;3.00;;;;;;;14.82;73.30;100549.59;6179591;23;20051;-85
2023/09/26 01:16:19;;;;;;;4.20;3.08;;;;;;;14.81;72.99;100555.91;6132506;23;20020;-86
2023/09/26 01:18:46;;;;;;;5.85;3.00;;;;;;;14.80;73.01;100554.25;6154684;23;20020;-85
2023/09/26 01:21:14;;;;;;;5.47;2.95;;;;;;;14.76;72.94;100548.34;6179866;23;20021;-86
2023/09/26 01:23:41;;;;;;;4.38;3.13;;;;;;;14.77;72.98;100555.38;6156117;23;20019;-85
2023/09/26 01:26:08;;;;;;;3.50;2.70;;;;;;;14.74;72.75;100545.81;6157565;23;20020;-85
2023/09/26 01:28:36;;;;;;;5.80;2.90;;;;;;;14.75;72.99;100546.66;6180706;23;20028;-85
2023/09/26 01:31:03;;;;;;;4.38;3.08;;;;;;;14.72;72.89;100553.13;6182022;23;20028;-85
2023/09/26 01:33:30;;;;;;;3.75;2.90;;;;;;;14.69;72.72;100556.09;6206851;23;20467;-85
2023/09/26 01:35:57;;;;;;;7.05;3.13;;;;;;;14.67;72.98;100554.56;6157581;23;20032;-86
2023/09/26 01:38:24;;;;;;;4.80;2.95;;;;;;;14.68;72.93;100561.56;6181578;23;20103;-85
2023/09/26 01:40:50;;;;;;;5.03;3.05;;;;;;;14.69;72.37;100563.28;6157032;23;20083;-85
2023/09/26 01:43:18;;;;;;;7.53;3.08;;;;;;;14.67;72.59;100563.41;6181043;23;20028;-85
2023/09/26 01:45:45;;;;;;;4.38;3.00;;;;;;;14.64;72.75;100560.19;6204924;23;20056;-85
2023/09/26 01:48:12;;;;;;;5.22;3.10;;;;;;;14.62;72.71;100554.97;6180265;23;20047;-86
2023/09/26 01:50:40;;;;;;;5.07;2.92;;;;;;;14.62;72.82;100549.63;6180870;23;20091;-85
2023/09/26 01:53:08;;;;;;;4.78;3.42;;;;;;;14.60;72.91;100556.13;6205860;23;20496;-85
2023/09/26 01:55:38;;;;;;;7.65;3.10;;;;;;;14.60;72.72;100553.44;6156352;23;20059;-86
2023/09/26 01:58:05;;;;;;;5.00;3.08;;;;;;;14.58;72.89;100552.75;6157809;23;20022;-85
2023/09/26 02:00:32;;;;;;;5.93;3.13;;;;;;;14.57;73.10;100559.09;6158911;23;20028;-85
2023/09/26 02:02:59;;;;;;;5.43;3.50;;;;;;;14.54;72.88;100552.19;6156421;23;20048;-85
2023/09/26 02:05:26;;;;;;;3.55;3.25;;;;;;;14.52;72.55;100546.13;6183605;23;20023;-85
2023/09/26 02:07:53;;;;;;;5.70;2.95;;;;;;;14.50;72.62;100551.63;6182502;23;20048;-85
2023/09/26 02:10:20;;;;;;;3.85;3.08;;;;;;;14.48;72.81;100536.72;6159316;23;20025;-85
2023/09/26 02:12:50;;;;;;;5.35;3.00;;;;;;;14.46;72.54;100538.69;6131832;23;20025;-85
2023/09/26 02:15:19;;;;;;;11.15;2.80;;;;;;;14.49;72.64;100539.22;6181293;23;20021;-85
2023/09/26 02:17:46;;;;;;;6.60;3.05;;;;;;;14.48;72.53;100540.22;6156429;23;20016;-85
2023/09/26 02:20:15;;;;;;;6.05;3.22;;;;;;;14.46;72.70;100538.69;6182637;23;20024;-85
2023/09/26 02:22:44;;;;;;;4.15;3.05;;;;;;;14.45;72.65;100535.19;6154682;23;20025;-85
2023/09/26 02:25:12;;;;;;;4.50;3.33;;;;;;;14.46;72.59;100536.00;6155233;23;20025;-86
2023/09/26 02:27:40;;;;;;;5.13;3.22;;;;;;;14.43;72.67;100529.13;6155208;23;20024;-85
2023/09/26 02:30:09;;;;;;;5.40;3.20;;;;;;;14.43;72.73;100530.97;6155568;23;20029;-85
2023/09/26 02:32:36;;;;;;;3.33;3.03;;;;;;;14.37;72.90;100537.69;6154217;23;20020;-86
2023/09/26 02:35:05;;;;;;;5.43;3.30;;;;;;;14.34;72.87;100533.47;6177689;23;20029;-85
2023/09/26 02:37:32;;;;;;;6.40;3.38;;;;;;;14.37;72.74;100534.19;6155008;23;20032;-86
2023/09/26 02:40:00;;;;;;;5.85;3.05;;;;;;;14.35;72.90;100523.66;6182147;23;20396;-85
2023/09/26 02:42:27;;;;;;;4.88;3.22;;;;;;;14.33;72.86;100520.28;6180927;23;20027;-86
2023/09/26 02:44:54;;;;;;;5.97;3.00;;;;;;;14.37;72.95;100518.16;6181898;23;20404;-85
2023/09/26 02:47:21;;;;;;;4.28;3.05;;;;;;;14.37;72.97;100518.16;6182544;23;20032;-86
2023/09/26 02:49:48;;;;;;;5.03;3.10;;;;;;;14.38;73.18;100511.84;6134105;23;20083;-85
2023/09/26 02:52:15;;;;;;;4.63;3.05;;;;;;;14.32;73.47;100518.59;6156905;23;20040;-86
2023/09/26 02:54:41;;;;;;;4.85;3.47;;;;;;;14.34;73.37;100525.47;6181031;23;20019;-86
2023/09/26 02:57:09;;;;;;;5.63;3.10;;;;;;;14.30;73.27;100509.91;6206186;23;20027;-86
2023/09/26 02:59:36;;;;;;;5.15;3.38;;;;;;;14.30;73.03;100523.25;6180567;23;20027;-85
2023/09/26 03:02:02;;;;;;;5.68;3.13;;;;;;;14.27;73.15;100512.81;6205553;23;20078;-85
2023/09/26 03:04:29;;;;;;;4.00;3.35;;;;;;;14.29;73.14;100518.88;6206464;23;20027;-85
2023/09/26 03:06:56;;;;;;;4.80;3.05;;;;;;;14.21;73.11;100516.09;6178247;23;20479;-85
2023/09/26 03:09:23;;;;;;;5.68;3.17;;;;;;;14.26;72.93;100512.00;6203326;23;20123;-85
2023/09/26 03:11:50;;;;;;;4.05;2.88;;;;;;;14.23;72.88;100517.63;6155480;23;20032;-85
2023/09/26 03:14:18;;;;;;;4.88;2.72;;;;;;;14.21;72.58;100511.56;6177338;23;20103;-85
2023/09/26 03:16:45;;;;;;;4.35;2.92;;;;;;;14.23;72.41;100511.44;6204444;23;20345;-85
2023/09/26 03:19:12;;;;;;;6.10;2.85;;;;;;;14.21;72.58;100508.91;6154262;23;20340;-86
2023/09/26 03:21:39;;;;;;;3.08;2.78;;;;;;;14.20;72.68;100509.91;6156132;23;20683;-85
2023/09/26 03:24:06;;;;;;;9.63;5.63;;;;;;;14.15;72.68;100525.50;6179571;23;20020;-85
2023/09/26 03:26:33;;;;;;;3.75;3.08;;;;;;;14.15;72.78;100514.00;6157997;23;20028;-85
2023/09/26 03:29:01;;;;;;;4.63;3.42;;;;;;;14.12;72.97;100523.13;6156555;23;20459;-85
2023/09/26 03:31:28;;;;;;;3.45;3.03;;;;;;;14.11;72.79;100516.94;6206441;23;20028;-85
2023/09/26 03:33:55;;;;;;;3.97;2.78;;;;;;;14.09;72.79;100518.06;6205658;23;20017;-85
2023/09/26 03:36:22;;;;;;;3.88;3.08;;;;;;;14.06;72.93;100521.84;6157738;23;20044;-84
2023/09/26 03:38:49;;;;;;;3.30;3.00;;;;;;;14.05;73.06;100520.16;6157062;23;20017;-85
2023/09/26 03:41:16;;;;;;;4.03;3.47;;;;;;;14.06;72.98;100521.00;6181784;23;20475;-85
2023/09/26 03:43:43;;;;;;;4.50;3.45;;;;;;;14.02;73.13;100520.47;6154869;23;20396;-86
2023/09/26 03:46:10;;;;;;;4.47;3.00;;;;;;;14.03;72.85;100518.63;6207095;23;20087;-85
2023/09/26 03:48:37;;;;;;;5.07;3.20;;;;;;;14.02;73.36;100524.97;6178018;23;20017;-85
2023/09/26 03:51:11;;;;;;;4.15;3.03;;;;;;;13.97;72.85;100522.72;6153496;23;20036;-85
2023/09/26 03:53:39;;;;;;;3.97;2.70;;;;;;;14.01;72.83;100523.25;6199080;23;20047;-86
2023/09/26 03:56:06;;;;;;;4.30;2.90;;;;;;;13.98;72.52;100524.38;6178194;23;20063;-85
2023/09/26 03:58:33;;;;;;;3.83;3.22;;;;;;;13.96;72.39;100525.50;6180050;23;20020;-85
2023/09/26 04:01:16;;;;;;;3.60;3.28;;;;;;;13.86;72.36;100522.84;6202262;23;20672;-85
2023/09/26 04:03:52;;;;;;;3.67;2.88;;;;;;;13.91;72.51;100523.25;6180810;23;20464;-85
2023/09/26 04:06:20;;;;;;;4.47;2.92;;;;;;;13.89;72.45;100526.09;6204784;23;20352;-85
2023/09/26 04:08:47;;;;;;;6.32;2.97;;;;;;;13.93;72.53;100520.47;6156987;23;20100;-86
2023/09/26 04:11:16;;;;;;;5.40;3.33;;;;;;;13.89;72.26;100530.56;6130847;23;20456;-86
2023/09/26 04:13:43;;;;;;;4.65;3.20;;;;;;;13.90;72.35;100519.75;6180499;23;20464;-85
2023/09/26 04:16:11;;;;;;;6.15;3.08;;;;;;;13.88;72.43;100527.06;6181091;23;20693;-85
2023/09/26 04:18:37;;;;;;;7.22;3.03;;;;;;;13.84;72.43;100524.78;6180970;23;20019;-85
2023/09/26 04:21:06;;;;;;;4.93;3.15;;;;;;;13.83;72.33;100517.78;6153471;23;20025;-85
2023/09/26 04:23:38;;;;;;;;;;;;;;;13.54;72.37;100518.59;6154195;23;20055;-89
2023/09/26 04:26:14;;;;;;;4.40;3.00;;;;;;;13.66;72.19;100517.50;6175844;23;19927;-90
2023/09/26 04:28:45;;;;;;;3.60;3.20;;;;;;;13.71;71.97;100521.56;6154249;23;20318;-89
2023/09/26 04:31:16;;;;;;;5.53;3.20;;;;;;;13.73;72.10;100516.94;6153432;23;20045;-89
2023/09/26 04:33:45;;;;;;;5.67;2.87;;;;;;;13.73;72.26;100511.59;6154819;23;20720;-90
2023/09/26 04:36:12;;;;;;;4.97;2.78;;;;;;;13.77;72.14;100523.69;6155444;23;20322;-89
2023/09/26 04:38:39;;;;;;;5.57;3.75;;;;;;;13.75;72.37;100507.81;6178037;23;20044;-89
2023/09/26 04:41:06;;;;;;;5.85;2.90;;;;;;;13.72;72.44;100508.09;6156541;23;20020;-87
2023/09/26 04:43:34;;;;;;;4.05;2.65;;;;;;;13.70;72.29;100503.88;6130421;23;20337;-87
2023/09/26 04:46:01;;;;;;;11.48;3.50;;;;;;;13.70;72.99;100504.72;6180834;23;20020;-88
2023/09/26 04:48:27;;;;;;;5.97;3.50;;;;;;;13.70;73.48;100509.22;6156938;23;20028;-88
2023/09/26 04:50:54;;;;;;;4.40;3.30;;;;;;;13.68;73.17;100504.00;6155885;23;20044;-88
2023/09/26 04:53:22;;;;;;;7.90;3.55;;;;;;;13.65;73.30;100507.78;6132434;23;20032;-87
2023/09/26 04:55:49;;;;;;;4.78;3.20;;;;;;;13.63;73.25;100507.06;6181711;23;20012;-87
2023/09/26 04:58:16;;;;;;;3.75;3.10;;;;;;;13.64;73.18;100508.78;6206129;23;20040;-89
2023/09/26 05:00:43;;;;;;;3.88;3.40;;;;;;;13.67;72.91;100510.34;6155622;23;20083;-86
2023/09/26 05:03:11;;;;;;;3.65;3.30;;;;;;;13.63;73.02;100512.41;6155879;23;20020;-86
2023/09/26 05:05:38;;;;;;;5.90;2.90;;;;;;;13.64;72.91;100515.97;6182437;23;20028;-87
2023/09/26 05:08:05;;;;;;;4.25;2.78;;;;;;;13.63;73.10;100511.59;6206263;23;20012;-89
2023/09/26 05:10:36;;;;;;;4.93;3.25;;;;;;;13.57;72.54;100512.16;6157980;23;20032;-88
2023/09/26 05:13:05;;;;;;;4.93;3.13;;;;;;;13.59;72.83;100518.19;6154350;23;20690;-89
2023/09/26 05:15:34;;;;;;;3.40;2.95;;;;;;;13.60;72.40;100522.53;6156774;23;20031;-90
2023/09/26 05:18:01;;;;;;;4.20;2.78;;;;;;;13.57;72.34;100521.00;6153806;23;20802;-87
2023/09/26 05:20:29;;;;;;;5.72;3.40;;;;;;;13.58;72.25;100517.31;6177676;23;20099;-87
2023/09/26 05:22:56;;;;;;;4.88;3.40;;;;;;;13.54;72.36;100523.94;6127047;23;20495;-89
2023/09/26 05:25:23;;;;;;;5.40;3.20;;;;;;;13.54;72.18;100525.78;6177925;23;20091;-88
2023/09/26 05:27:50;;;;;;;3.97;3.20;;;;;;;13.54;72.08;100525.78;6203025;23;20097;-87
2023/09/26 05:30:17;;;;;;;5.30;3.25;;;;;;;13.51;72.28;100523.34;6191821;23;20664;-87
2023/09/26 05:32:44;;;;;;;4.45;3.05;;;;;;;13.50;72.26;100519.00;6126908;23;20020;-88
2023/09/26 05:35:11;;;;;;;3.38;3.08;;;;;;;13.50;72.20;100527.84;6132681;23;20468;-88
2023/09/26 05:37:38;;;;;;;5.50;3.20;;;;;;;13.50;72.13;100522.53;6181460;23;20028;-89
2023/09/26 05:40:06;;;;;;;4.40;3.63;;;;;;;13.50;72.25;100527.03;6130828;23;20356;-90
2023/09/26 05:42:35;;;;;;;3.70;3.28;;;;;;;13.48;72.28;100521.81;6130296;23;20025;-89
2023/09/26 05:45:06;;;;;;;4.00;3.40;;;;;;;13.44;72.40;100528.41;6178617;23;20441;-89
2023/09/26 05:47:34;;;;;;;5.03;3.60;;;;;;;13.50;72.54;100524.34;6204882;23;20033;-86
2023/09/26 05:50:06;;;;;;;4.00;3.30;;;;;;;13.49;72.64;100520.84;6178089;23;20020;-86
2023/09/26 05:52:33;;;;;;;5.70;3.10;;;;;;;13.53;72.92;100532.06;6156303;23;20066;-86
2023/09/26 05:55:00;;;;;;;10.38;3.92;;;;;;;13.53;73.03;100527.56;6179018;23;20027;-87
2023/09/26 05:57:27;;;;;;;7.07;4.72;;;;;;;13.56;73.40;100521.97;6177249;23;20025;-87
2023/09/26 05:59:55;;;;;;;7.07;4.50;;;;;;;13.58;73.68;100521.81;6201795;23;20012;-86
2023/09/26 06:02:21;;;;;;;8.57;4.65;;;;;;;13.61;73.49;100530.41;6177853;23;20036;-88
2023/09/26 06:04:50;;;;;;;7.25;3.70;;;;;;;13.62;73.55;100528.59;6178436;23;20052;-87
2023/09/26 06:07:17;;;;;;;4.97;3.15;;;;;;;13.63;73.44;100520.41;6205168;23;20040;-88
2023/09/26 06:09:44;;;;;;;6.88;3.30;;;;;;;13.67;74.02;100527.19;6157434;23;20023;-86
2023/09/26 06:12:31;;;;;;;5.65;3.60;;;;;;;13.67;74.08;100526.34;6163736;23;20318;-85
2023/09/26 06:14:58;;;;;;;5.90;3.65;;;;;;;13.67;74.13;100529.84;6155440;23;20111;-88
2023/09/26 06:17:25;;;;;;;4.47;3.25;;;;;;;13.65;74.10;100528.31;6155948;23;20078;-86
2023/09/26 06:19:52;;;;;;;8.23;4.25;;;;;;;13.66;73.93;100525.50;6154826;23;20024;-88
2023/09/26 06:22:19;;;;;;;15.55;4.75;;;;;;;13.64;73.52;100531.97;6203212;23;20035;-88
2023/09/26 06:24:46;;;;;;;7.68;4.47;;;;;;;13.66;73.17;100535.31;6202835;23;20395;-87
2023/09/26 06:27:13;;;;;;;8.10;4.93;;;;;;;13.63;73.40;100535.59;6180567;23;20082;-87
2023/09/26 06:29:41;;;;;;;5.35;4.53;;;;;;;13.60;73.07;100531.38;6178611;23;20031;-87
2023/09/26 06:32:08;;;;;;;5.97;4.53;;;;;;;13.57;73.03;100528.16;6179198;23;21389;-87
2023/09/26 06:34:40;;;;;;;6.25;4.38;;;;;;;13.62;73.63;100533.94;6177922;23;20040;-87
2023/09/26 06:37:06;;;;;;;6.85;4.20;;;;;;;13.64;73.51;100532.81;6127911;23;20024;-87
2023/09/26 06:39:34;;;;;;;6.88;4.20;;;;;;;13.70;73.36;100534.06;6175676;23;20152;-86
2023/09/26 06:42:01;;;;;;;9.85;4.30;;;;;;;13.68;73.21;100536.03;6152183;23;20025;-87
2023/09/26 06:44:29;;;;;;;7.50;3.83;;;;;;;13.71;73.33;100537.56;6153471;23;20715;-87
2023/09/26 06:46:56;;;;;;;7.88;4.55;;;;;;;13.72;73.29;100532.09;6176489;23;20368;-87
2023/09/26 06:49:23;;;;;;;5.80;4.07;;;;;;;13.81;73.05;100530.41;6180004;23;20016;-88
2023/09/26 06:51:50;;;;;;;8.20;4.75;;;;;;;13.84;73.23;100538.13;6175964;23;20027;-87
2023/09/26 06:54:17;;;;;;;6.20;4.68;;;;;;;13.85;73.58;100535.34;6180679;23;20024;-88
2023/09/26 06:56:44;;;;;;;7.95;4.60;;;;;;;13.84;73.51;100532.81;6155801;23;20020;-86
2023/09/26 06:59:11;;;;;;;8.85;4.20;;;;;;;13.86;73.89;100537.03;6153515;23;20021;-88
2023/09/26 07:01:38;;;;;;;8.88;4.40;;;;;;;13.87;74.11;100536.06;6152331;23;20948;-86
2023/09/26 07:04:13;;;;;;;8.80;4.60;;;;;;;13.92;73.99;100534.78;6188192;23;20024;-86
2023/09/26 07:06:41;;;;;;;8.27;4.40;;;;;;;13.92;74.27;100543.66;6156739;23;20483;-87
2023/09/26 07:09:08;;;;;;;7.20;4.25;;;;;;;13.98;74.19;100539.56;6153702;23;20032;-88
2023/09/26 07:11:35;;;;;;;7.05;4.45;;;;;;;14.00;74.34;100537.59;6154508;23;20027;-87
2023/09/26 07:14:02;;;;;;;7.47;4.03;;;;;;;14.00;74.46;100527.75;6153746;23;20017;-87
2023/09/26 07:16:33;;;;;;;7.93;4.15;;;;;;;14.05;74.84;100541.53;6200975;23;20100;-86
2023/09/26 07:19:00;;;;;;;9.23;4.50;;;;;;;14.06;75.16;100542.38;6175874;23;20074;-86
2023/09/26 07:21:27;;;;;;;15.50;5.50;;;;;;;14.05;75.11;100533.53;6141589;23;20028;-87
2023/09/26 07:23:54;;;;;;;11.48;5.72;;;;;;;14.09;75.27;100534.94;6178604;23;20012;-86
2023/09/26 07:26:21;;;;;;;9.30;5.22;;;;;;;14.13;75.17;100531.97;6177130;23;20058;-86
2023/09/26 07:28:48;;;;;;;8.27;4.50;;;;;;;14.16;74.97;100535.19;6177661;23;20087;-87
2023/09/26 07:31:16;;;;;;;9.25;5.85;;;;;;;14.19;75.60;100531.41;6154890;23;20104;-88
2023/09/26 07:33:43;;;;;;;9.40;5.30;;;;;;;14.22;75.54;100528.44;6180610;23;20016;-87
2023/09/26 07:36:10;;;;;;;8.30;5.15;;;;;;;14.25;75.52;100531.69;6153337;23;20020;-88
2023/09/26 07:38:37;;;;;;;9.75;5.20;;;;;;;14.28;75.67;100526.06;6180119;23;20087;-87
2023/09/26 07:41:04;;;;;;;10.20;5.22;;;;;;;14.31;75.66;100522.25;6131156;23;20047;-87
2023/09/26 07:43:33;;;;;;;6.70;4.95;;;;;;;14.37;75.92;100518.16;6153640;23;20020;-86
2023/09/26 07:46:05;;;;;;;14.48;6.88;;;;;;;14.42;76.06;100521.25;6153821;23;20028;-85
2023/09/26 07:48:33;;;;;;;6.70;5.03;;;;;;;14.44;75.86;100521.94;6203263;23;20066;-85
2023/09/26 07:51:00;;;;;;;9.45;5.75;;;;;;;14.45;75.75;100519.16;6201940;23;20016;-86
2023/09/26 07:53:27;;;;;;;11.55;5.65;;;;;;;14.50;75.69;100524.03;6178483;23;20100;-86
2023/09/26 07:55:56;;;;;;;8.15;5.30;;;;;;;14.53;75.72;100519.28;6177687;23;20031;-86
2023/09/26 07:58:23;;;;;;;7.97;5.45;;;;;;;14.58;75.89;100526.00;6176897;23;20094;-87
2023/09/26 08:00:50;;;;;;;7.45;5.55;;;;;;;14.61;75.66;100520.41;6177749;23;20124;-87
2023/09/26 08:03:17;;;;;;;9.07;5.47;;;;;;;14.63;75.99;100524.63;6152253;23;20021;-86
2023/09/26 08:05:44;;;;;;;8.48;5.93;;;;;;;14.66;76.32;100528.81;6153947;23;20460;-87
2023/09/26 08:08:11;;;;;;;8.13;5.72;;;;;;;14.69;76.32;100532.03;6176848;23;20032;-86
2023/09/26 08:10:38;;;;;;;6.97;5.78;;;;;;;14.70;76.18;100519.50;6154278;23;20515;-87
2023/09/26 08:13:06;;;;;;;7.97;5.85;;;;;;;14.77;76.14;100520.63;6204101;23;20067;-87
2023/09/26 08:15:34;;;;;;;9.70;5.97;;;;;;;14.79;76.44;100521.31;6204036;23;20017;-86
2023/09/26 08:18:01;;;;;;;9.88;6.22;;;;;;;14.85;76.49;100517.22;6180134;23;20025;-87
2023/09/26 08:20:28;;;;;;;7.60;5.30;;;;;;;14.86;76.63;100518.91;6203092;23;20362;-87
2023/09/26 08:22:55;;;;;;;8.32;5.55;;;;;;;14.89;76.71;100519.47;6203449;23;20099;-86
2023/09/26 08:25:22;;;;;;;8.30;5.32;;;;;;;14.91;76.86;100517.47;6150415;23;20023;-86
2023/09/26 08:27:49;;;;;;;8.25;6.00;;;;;;;14.93;77.13;100518.19;6177004;23;20020;-87
2023/09/26 08:30:16;;;;;;;8.00;5.15;;;;;;;14.98;77.37;100521.25;6154739;23;20028;-87
2023/09/26 08:32:43;;;;;;;7.25;5.57;;;;;;;15.04;77.91;100516.31;6204377;23;20400;-87
2023/09/26 08:35:10;;;;;;;9.00;5.90;;;;;;;15.07;77.86;100522.19;6201934;23;20028;-87
2023/09/26 08:37:38;;;;;;;7.45;5.60;;;;;;;15.10;78.23;100515.69;6174123;23;20460;-86
2023/09/26 08:40:12;;;;;;;8.30;5.97;;;;;;;15.10;78.73;100518.38;6177314;23;20025;-87
2023/09/26 08:42:40;;;;;;;6.38;5.45;;;;;;;15.16;78.31;100515.09;6201265;23;20017;-88
2023/09/26 08:45:08;;;;;;;7.57;6.00;;;;;;;15.19;78.95;100512.16;6154197;23;20017;-87
2023/09/26 08:47:38;;;;;;;8.00;4.88;;;;;;;15.21;78.76;100502.13;6154493;23;20023;-88
2023/09/26 08:50:06;;;;;;;7.70;4.78;;;;;;;15.23;78.87;100510.00;6155501;23;20024;-86
2023/09/26 08:52:33;;;;;;;7.47;5.40;;;;;;;15.27;78.93;100506.88;6180726;23;20104;-88
2023/09/26 08:55:00;;;;;;;5.60;4.93;;;;;;;15.29;78.92;100504.91;6153482;23;20025;-88
2023/09/26 08:57:27;;;;;;;6.22;5.25;;;;;;;15.33;79.33;100508.94;6155321;23;20051;-86
2023/09/26 08:59:55;;;;;;;6.88;4.75;;;;;;;15.37;79.20;100509.50;6126600;23;20075;-86
2023/09/26 09:02:22;;;;;;;7.60;5.30;;;;;;;15.40;80.06;100502.00;6198111;23;20112;-86
2023/09/26 09:04:49;;;;;;;6.82;4.93;;;;;;;15.41;79.77;100498.31;6148972;23;20027;-86
2023/09/26 09:07:16;;;;;;;7.95;4.70;;;;;;;15.45;80.03;100501.56;6198606;23;20021;-87
2023/09/26 09:10:03;;;;;;;6.35;5.00;;;;;;;15.44;80.94;100499.88;6174403;23;20083;-87
2023/09/26 09:12:30;;;;;;;6.65;4.43;;;;;;;15.50;80.45;100491.25;6148312;23;20028;-87
2023/09/26 09:14:57;;;;;;;4.90;4.40;;;;;;;15.54;80.96;100489.94;6199030;23;20024;-86
2023/09/26 09:17:24;;;;;;;6.75;5.70;;;;;;;15.59;81.23;100492.16;6176870;23;20048;-86
2023/09/26 09:19:52;;;;;;;6.10;4.53;;;;;;;15.59;80.82;100478.78;6201644;23;20025;-86
2023/09/26 09:22:21;;;;;;;6.35;4.63;;;;;;;15.66;81.37;100487.03;6123259;23;20734;-85
2023/09/26 09:24:56;;;;;;;6.28;4.30;;;;;;;15.63;82.00;100482.84;6166897;23;20012;-86
2023/09/26 09:27:34;;;;;;;5.93;5.32;;;;;;;15.66;81.85;100479.84;6152840;23;20374;-84
2023/09/26 09:30:15;;;;;;;7.38;5.03;;;;;;;15.72;82.49;100475.75;6176986;23;20345;-84
2023/09/26 09:32:42;;;;;;;7.82;5.28;;;;;;;15.76;81.58;100477.97;6178202;23;20012;-86
2023/09/26 09:35:10;;;;;;;6.22;4.95;;;;;;;15.82;81.46;100471.16;6176883;23;20028;-87
2023/09/26 09:37:37;;;;;;;6.45;4.68;;;;;;;15.82;82.18;100461.31;6177604;23;20020;-87
2023/09/26 09:40:08;;;;;;;6.72;5.00;;;;;;;15.90;82.28;100467.69;6202956;23;20353;-86
2023/09/26 09:42:35;;;;;;;6.63;4.95;;;;;;;15.94;82.41;100461.03;6203406;23;20095;-86
2023/09/26 09:45:04;;;;;;;6.05;5.10;;;;;;;15.99;81.93;100458.75;6151264;23;20080;-86
2023/09/26 09:47:32;;;;;;;5.93;4.63;;;;;;;15.99;82.10;100446.19;6152637;23;20083;-87
2023/09/26 09:50:00;;;;;;;8.75;5.25;;;;;;;16.04;82.22;100451.91;6176720;23;20079;-86
2023/09/26 09:52:30;;;;;;;6.65;4.45;;;;;;;16.08;82.12;100454.28;6153464;23;20039;-87
2023/09/26 09:54:58;;;;;;;6.63;4.75;;;;;;;16.12;82.20;100453.81;6154036;23;20069;-86
2023/09/26 09:57:28;;;;;;;5.82;4.53;;;;;;;16.14;82.33;100453.66;6203889;23;20024;-87
2023/09/26 09:59:56;;;;;;;6.53;4.95;;;;;;;16.17;82.31;100450.66;6153681;23;20021;-88
2023/09/26 10:02:24;;;;;;;10.75;4.78;;;;;;;16.20;82.33;100443.16;6178074;23;20029;-86
2023/09/26 10:04:55;;;;;;;9.25;4.38;;;;;;;16.26;82.50;100452.41;6129153;23;20028;-88
2023/09/26 10:07:24;;;;;;;6.93;4.78;;;;;;;16.30;83.67;100444.91;6176228;23;20016;-88
2023/09/26 10:09:51;;;;;;;6.40;4.38;;;;;;;16.34;83.10;100440.91;6153189;23;20031;-86
2023/09/26 10:12:18;;;;;;;6.53;4.25;;;;;;;16.33;83.14;100437.38;6178740;23;20024;-86
2023/09/26 10:14:45;;;;;;;5.97;4.32;;;;;;;16.38;82.88;100432.38;6154982;23;20024;-87
2023/09/26 10:17:14;;;;;;;5.55;4.03;;;;;;;16.39;83.47;100430.56;6153663;23;20028;-87
2023/09/26 10:19:42;;;;;;;5.55;3.65;;;;;;;16.42;83.36;100427.56;6154665;23;20020;-86
2023/09/26 10:22:15;;;;;;;7.18;4.50;;;;;;;16.45;83.62;100432.59;6180216;23;20078;-87
2023/09/26 10:24:50;;;;;;;6.00;3.95;;;;;;;16.46;83.94;100429.75;6154537;23;20516;-86
2023/09/26 10:27:32;;;;;;;11.15;4.72;;;;;;;16.50;84.49;100439.16;6177450;23;20050;-86
2023/09/26 10:30:14;;;;;;;7.47;4.40;;;;;;;16.58;83.40;100419.56;6203019;23;20025;-86
2023/09/26 10:32:42;;;;;;;7.63;4.53;;;;;;;16.60;82.85;100422.94;6152334;23;20013;-86
2023/09/26 10:35:15;;;;;;;7.47;4.70;;;;;;;16.65;83.31;100425.97;6151965;23;20024;-87
2023/09/26 10:38:18;;;;;;;5.00;4.50;;;;;;;16.64;83.76;100416.28;6200064;23;20028;-86
2023/09/26 10:40:47;;;;;;;7.97;4.55;;;;;;;16.70;82.88;100418.28;6177296;23;20100;-86
2023/09/26 10:43:17;;;;;;;5.65;4.57;;;;;;;16.72;81.86;100410.09;6177116;23;20048;-86
2023/09/26 10:46:04;;;;;;;6.82;4.18;;;;;;;16.74;81.95;100410.78;6181217;23;20024;-85
2023/09/26 10:48:31;;;;;;;6.40;3.92;;;;;;;16.79;81.82;100403.13;6150564;23;20028;-86
2023/09/26 10:50:58;;;;;;;5.93;4.25;;;;;;;16.84;82.01;100406.16;6179190;23;20095;-85
2023/09/26 10:53:26;;;;;;;5.63;4.93;;;;;;;16.86;81.38;100403.31;6203746;23;20024;-85
2023/09/26 10:55:53;;;;;;;5.55;4.35;;;;;;;16.89;80.69;100398.47;6180239;23;20463;-85
2023/09/26 10:58:20;;;;;;;4.72;4.20;;;;;;;16.92;80.84;100399.97;6154022;23;20123;-85
2023/09/26 11:00:51;;;;;;;5.43;4.72;;;;;;;16.93;80.64;100401.66;6155477;23;20092;-87
2023/09/26 11:03:38;;;;;;;5.05;4.07;;;;;;;16.98;80.99;100398.47;6139078;23;20332;-84
2023/09/26 11:06:07;;;;;;;4.35;3.70;;;;;;;17.00;80.92;100399.16;6156414;23;20019;-85
2023/09/26 11:08:35;;;;;;;4.15;3.63;;;;;;;17.02;81.00;100406.06;6156795;23;20013;-84
2023/09/26 11:11:02;;;;;;;5.47;4.32;;;;;;;17.05;80.03;100397.66;6131055;23;20018;-84
2023/09/26 11:13:30;;;;;;;4.32;3.78;;;;;;;17.08;80.22;100393.81;6180380;23;20786;-85
2023/09/26 11:15:57;;;;;;;4.18;3.35;;;;;;;17.11;79.96;100396.16;6204979;23;20023;-84
2023/09/26 11:18:24;;;;;;;5.75;4.20;;;;;;;17.13;80.19;100396.84;6180056;23;20020;-83
2023/09/26 11:20:51;;;;;;;4.70;4.30;;;;;;;17.18;79.85;100396.34;6155725;23;20020;-84
2023/09/26 11:23:39;;;;;;;3.85;3.55;;;;;;;17.21;80.28;100390.66;6163513;23;20036;-83
2023/09/26 11:26:07;;;;;;;4.32;3.92;;;;;;;17.25;79.76;100394.66;6181521;23;20018;-83
2023/09/26 11:28:35;;;;;;;6.28;4.50;;;;;;;17.27;79.72;100393.50;6155891;23;20074;-83